Time;durP1;ratioP1;P1;durP2;ratioP2;P2;SDS_P1;SDS_P2;PMS_P1;PMS_P2;Temp;Humidity;BMP_temperature;BMP_pressure;BME280_temperature;BME280_humidity;BME280_pressure;Samples;Min_cycle;Max_cycle;Signal;HPM_P1;HPM_P2
2022/03/16 06:33:14;;;;;;;47.60;25.52;;;;;;;3.06;100.00;101453.94;6139312;22;21223;31
2022/03/16 06:36:03;;;;;;;41.73;24.60;;;;;;;2.83;100.00;101412.06;6167131;23;19916;-96
2022/03/16 06:39:05;;;;;;;;;;;;;;;;;;;;;
2022/03/16 06:41:53;;;;;;;40.90;23.42;;;;;;;3.11;100.00;101448.72;6163393;23;20030;-95
2022/03/16 06:44:35;;;;;;;42.30;24.17;;;;;;;3.01;100.00;101429.50;6138544;23;20018;-95
2022/03/16 06:47:02;;;;;;;40.28;24.25;;;;;;;2.99;100.00;101423.41;6159897;23;20017;-93
2022/03/16 06:49:59;;;;;;;;;;;;;;;;;;;;;
2022/03/16 06:52:39;;;;;;;40.97;23.13;;;;;;;2.93;100.00;101402.47;6156708;23;20021;-92
2022/03/16 06:55:18;;;;;;;39.88;23.27;;;;;;;2.98;100.00;101412.97;6160148;23;20072;-95
2022/03/16 06:58:23;;;;;;;43.78;23.73;;;;;;;2.92;100.00;101398.13;6165841;23;20158;-93
2022/03/16 07:02:00;;;;;;;39.33;22.40;;;;;;;3.23;100.00;101453.06;6112350;22;20015;-94
2022/03/16 07:04:46;;;;;;;37.88;23.02;;;;;;;3.21;100.00;101463.53;6165424;23;20031;-94
2022/03/16 07:08:50;;;;;;;;;;;;;;;;;;;;;
2022/03/16 07:12:34;;;;;;;38.75;22.23;;;;;;;2.95;100.00;101408.59;5987950;23;20071;-94
2022/03/16 07:15:49;;;;;;;36.78;21.88;;;;;;;3.28;100.00;101456.56;5902097;23;20080;-94
2022/03/16 07:20:04;;;;;;;;;;;;;;;;;;;;;
2022/03/16 07:24:25;;;;;;;;;;;;;;;;;;;;;
2022/03/16 07:49:14;;;;;;;;;;;;;;;;;;;;;
2022/03/16 07:52:45;;;;;;;31.50;20.48;;;;;;;3.48;100.00;101432.09;6263292;22;20011;-92
2022/03/16 07:56:15;;;;;;;32.45;19.25;;;;;;;3.58;100.00;101455.66;6251341;22;20016;-95
2022/03/16 07:59:21;;;;;;;28.70;20.35;;;;;;;3.39;100.00;101411.19;6265941;23;20122;-95
2022/03/16 08:06:12;;;;;;;29.42;18.83;;;;;;;3.48;100.00;101415.50;6234809;23;20240;-94
2022/03/16 08:09:55;;;;;;;;;;;;;;;;;;;;;
2022/03/16 08:15:48;;;;;;;35.72;18.33;;;;;;;4.10;100.00;101453.75;6128567;23;20114;-94
2022/03/16 08:18:23;;;;;;;29.55;19.80;;;;;;;4.17;100.00;101458.13;6206899;23;20033;-94
2022/03/16 08:20:53;;;;;;;28.55;17.83;;;;;;;3.84;100.00;101401.47;6206408;23;20021;-95
2022/03/16 08:23:24;;;;;;;31.38;18.58;;;;;;;3.99;100.00;101421.50;6205362;23;20261;-95
2022/03/16 08:26:10;;;;;;;32.15;16.95;;;;;;;4.35;100.00;101471.16;6208497;23;20036;-95
2022/03/16 08:28:56;;;;;;;29.60;17.15;;;;;;;4.36;100.00;101477.28;6207073;23;20021;-93
2022/03/16 08:31:24;;;;;;;27.45;16.90;;;;;;;4.33;100.00;101472.03;6205889;23;20032;-94
2022/03/16 08:33:56;;;;;;;34.60;17.55;;;;;;;4.13;100.00;101428.41;6197103;23;20072;-95
2022/03/16 08:37:03;;;;;;;27.98;16.75;;;;;;;4.39;100.00;101483.41;6171339;23;20029;-94
2022/03/16 08:40:08;;;;;;;25.63;16.02;;;;;;;3.97;100.00;101434.59;6133358;23;20032;-94
2022/03/16 08:42:35;;;;;;;24.77;17.23;;;;;;;4.00;100.00;101452.94;6132115;23;20022;-95
2022/03/16 08:45:09;;;;;;;;;;;;;;;4.35;100.00;101502.63;6109242;23;20089;-95
2022/03/16 08:50:41;;;;;;;25.95;17.83;;;;;;;4.40;100.00;101497.38;6157329;23;20080;-95
2022/03/16 08:53:16;;;;;;;26.17;16.92;;;;;;;4.19;100.00;101428.41;6167681;23;20080;-96
2022/03/16 08:56:05;;;;;;;23.90;16.83;;;;;;;4.46;100.00;101466.72;6194496;23;20024;-95
2022/03/16 08:58:46;;;;;;;25.80;17.65;;;;;;;4.68;100.00;101485.00;6170480;23;20795;-95
2022/03/16 09:01:23;;;;;;;27.92;19.23;;;;;;;4.76;100.00;101488.44;6194486;23;20035;-96
2022/03/16 09:03:54;;;;;;;27.95;18.52;;;;;;;4.75;100.00;101463.06;6188742;23;20071;-94
2022/03/16 09:06:27;;;;;;;30.75;19.45;;;;;;;4.75;100.00;101423.72;6224604;23;20142;-94
2022/03/16 09:09:11;;;;;;;25.67;17.35;;;;;;;4.75;100.00;101428.97;6225807;23;20024;-95
2022/03/16 09:12:03;;;;;;;26.65;17.90;;;;;;;5.09;100.00;101482.97;6165424;23;20014;-94
2022/03/16 09:14:47;;;;;;;27.17;17.95;;;;;;;4.81;100.00;101424.56;6138252;23;20100;-95
2022/03/16 09:17:17;;;;;;;26.67;17.75;;;;;;;5.43;100.00;101494.09;6162727;23;20016;-95
2022/03/16 09:20:04;;;;;;;23.05;16.75;;;;;;;5.52;100.00;101480.84;6138875;23;20040;-95
2022/03/16 09:22:48;;;;;;;27.70;18.30;;;;;;;5.46;100.00;101466.91;6164986;23;20018;-96
2022/03/16 09:26:31;;;;;;;;;;;;;;;;;;;;;
2022/03/16 09:35:51;;;;;;;30.83;20.10;;;;;;;5.86;100.00;101435.84;6162594;23;20019;-96
2022/03/16 09:38:48;;;;;;;25.38;18.52;;;;;;;5.74;100.00;101394.81;6155574;23;20052;-96
2022/03/16 09:41:20;;;;;;;31.08;20.88;;;;;;;5.77;100.00;101396.53;6224519;23;20025;-95
2022/03/16 09:43:56;;;;;;;28.70;19.35;;;;;;;5.78;100.00;101388.63;6229854;23;20013;-96
2022/03/16 09:46:44;;;;;;;28.40;19.55;;;;;;;5.91;98.70;101394.66;6204643;23;20054;-95
2022/03/16 09:49:32;;;;;;;30.30;19.90;;;;;;;6.16;98.08;101408.34;6222622;23;20024;-95
2022/03/16 09:52:09;;;;;;;25.48;17.88;;;;;;;6.33;97.57;101378.31;6220730;23;20017;-96
2022/03/16 09:54:55;;;;;;;26.35;18.42;;;;;;;6.81;95.78;101398.66;6220413;23;20059;-95
2022/03/16 09:57:41;;;;;;;24.63;17.70;;;;;;;7.12;95.17;101384.09;6197126;23;20456;-95
2022/03/16 10:00:12;;;;;;;25.15;17.70;;;;;;;7.60;94.86;101398.16;6222852;23;20016;-96
2022/03/16 10:02:43;;;;;;;22.73;17.33;;;;;;;7.99;89.46;101396.53;6221579;23;20020;-96
2022/03/16 10:05:11;;;;;;;21.60;16.83;;;;;;;8.12;86.53;101406.81;6215853;23;20060;-95
2022/03/16 10:07:48;;;;;;;22.65;16.30;;;;;;;7.87;85.36;101369.53;6217364;23;20082;-95
2022/03/16 10:13:21;;;;;;;24.58;16.95;;;;;;;8.40;86.47;101365.78;6218889;23;20044;-96
2022/03/16 10:16:08;;;;;;;25.38;17.42;;;;;;;8.97;82.29;101383.81;6219839;23;20623;-94
2022/03/16 10:18:51;;;;;;;;;;;;;;;;;;;;;
2022/03/16 10:21:30;;;;;;;21.77;17.13;;;;;;;9.81;80.27;101355.97;6224108;23;20024;-95
2022/03/16 10:24:34;;;;;;;21.02;16.35;;;;;;;10.07;78.51;101356.06;6223059;23;20021;-95
2022/03/16 10:27:19;;;;;;;20.13;15.82;;;;;;;10.81;73.91;101342.34;6221281;23;20031;-96
2022/03/16 10:33:22;;;;;;;18.75;15.35;;;;;;;12.36;67.55;101396.06;6221321;23;20028;-95
2022/03/16 10:35:59;;;;;;;;;;;;;;;12.63;65.70;101411.78;6190908;23;20020;-96
2022/03/16 10:38:38;;;;;;;18.73;14.90;;;;;;;12.47;65.59;101357.53;6218723;23;20244;-96
2022/03/16 10:47:14;;;;;;;17.60;15.02;;;;;;;13.50;62.95;101368.34;6221065;23;20020;-96
2022/03/16 10:50:01;;;;;;;19.58;15.25;;;;;;;13.69;61.77;101360.41;6218394;23;20017;-96
2022/03/16 10:52:34;;;;;;;15.20;13.60;;;;;;;13.40;60.31;101326.22;6191921;23;20016;-96
2022/03/16 10:55:12;;;;;;;17.75;14.35;;;;;;;13.85;61.62;101358.75;6217645;23;20024;-95
2022/03/16 10:58:04;;;;;;;16.75;14.55;;;;;;;13.85;62.17;101310.00;6218586;23;20025;-95
2022/03/16 11:00:52;;;;;;;18.80;15.07;;;;;;;14.19;63.42;101318.13;6230560;23;20024;-96
2022/03/16 11:03:36;;;;;;;;;;;;;;;15.09;58.11;101359.09;6236598;23;20008;-94
2022/03/16 11:06:10;;;;;;;16.38;13.77;;;;;;;14.72;58.14;101298.72;6211541;23;19927;-96
2022/03/16 11:08:44;;;;;;;15.88;14.07;;;;;;;15.13;56.60;101296.59;6226058;23;20072;-96
2022/03/16 11:14:37;;;;;;;15.48;13.70;;;;;;;15.75;54.37;101296.00;6107743;23;20022;-95
2022/03/16 11:17:05;;;;;;;16.02;14.32;;;;;;;15.51;55.79;101299.09;6099800;23;20089;-96
2022/03/16 11:19:44;;;;;;;19.60;13.63;;;;;;;15.90;56.16;101328.19;6161822;23;20017;-96
2022/03/16 11:26:35;;;;;;;15.77;13.13;;;;;;;16.21;52.11;101359.44;6156974;23;20025;-96
2022/03/16 11:29:44;;;;;;;13.80;12.27;;;;;;;16.46;53.05;101343.75;6093057;23;20041;-96
2022/03/16 11:32:18;;;;;;;14.55;12.43;;;;;;;16.92;51.03;101335.78;6158859;23;20017;-95
2022/03/16 11:35:00;;;;;;;14.10;12.70;;;;;;;17.04;49.99;101327.88;6155263;23;20017;-96
2022/03/16 11:38:00;;;;;;;14.25;12.77;;;;;;;17.25;49.43;101307.03;6124529;23;20022;-96
2022/03/16 11:40:42;;;;;;;;;;;;;;;;;;;;;
2022/03/16 11:43:30;;;;;;;14.10;12.57;;;;;;;18.58;45.27;101310.22;6121446;23;20121;-96
2022/03/16 11:46:28;;;;;;;15.07;13.50;;;;;;;18.79;44.12;101243.56;6126056;23;20014;-95
2022/03/16 11:49:11;;;;;;;15.13;12.48;;;;;;;18.66;46.28;101288.28;6055646;23;20025;-95
2022/03/16 11:52:00;;;;;;;12.43;11.23;;;;;;;18.98;45.45;101235.13;6068831;23;20657;-95
2022/03/16 11:54:52;;;;;;;15.93;11.95;;;;;;;20.38;41.83;101290.50;6065083;23;20018;-96
2022/03/16 11:57:56;;;;;;;14.23;12.73;;;;;;;20.25;40.39;101235.88;6108590;23;20053;-96
2022/03/16 12:00:44;;;;;;;13.32;11.95;;;;;;;20.75;38.32;101237.50;6132416;23;20022;-96
2022/03/16 12:03:47;;;;;;;12.65;11.38;;;;;;;21.47;37.78;101240.00;6130907;23;20022;-96
2022/03/16 12:07:03;;;;;;;13.50;12.10;;;;;;;21.97;35.87;101238.63;6133955;23;20028;-96
2022/03/16 12:10:16;;;;;;;13.20;11.90;;;;;;;22.00;35.70;101287.81;6137538;23;20022;-96
2022/03/16 12:13:12;;;;;;;13.07;11.25;;;;;;;21.49;37.32;101263.16;6130547;23;20058;-95
2022/03/16 12:15:48;;;;;;;13.85;12.45;;;;;;;21.51;36.53;101209.13;6129688;23;20022;-96
2022/03/16 12:18:24;;;;;;;13.55;12.20;;;;;;;21.78;35.51;101184.47;6134310;23;20036;-95
2022/03/16 12:21:03;;;;;;;15.45;13.82;;;;;;;20.85;36.88;101206.19;6134343;23;20034;-96
2022/03/16 12:24:00;;;;;;;12.55;11.35;;;;;;;20.14;38.63;101227.75;6131140;23;20022;-95
2022/03/16 12:28:55;;;;;;;15.68;13.57;;;;;;;18.85;40.99;101214.50;6156851;23;20093;-94
2022/03/16 12:29:54;;;;;;;14.80;12.07;;;;;;;17.72;43.82;101228.28;6195062;23;20032;-96
2022/03/16 12:32:36;;;;;;;16.73;13.15;;;;;;;16.80;46.18;101187.56;6191531;23;20028;-96
2022/03/16 12:35:44;;;;;;;14.23;12.73;;;;;;;16.06;48.26;101158.06;6193980;23;20110;-95
2022/03/16 12:39:13;;;;;;;16.83;13.27;;;;;;;16.63;48.08;101222.47;6197478;23;20203;-95
2022/03/16 12:44:45;;;;;;;12.25;10.88;;;;;;;17.70;42.51;101179.28;6221121;23;20047;-95
2022/03/16 12:50:51;;;;;;;13.43;9.65;;;;;;;19.56;36.58;101179.06;6221530;23;20116;-96
2022/03/16 12:53:44;;;;;;;11.35;9.77;;;;;;;19.70;36.56;101202.25;6195084;23;20375;-95
2022/03/16 12:56:44;;;;;;;11.40;10.15;;;;;;;19.61;36.82;101166.16;6220331;23;20483;-96
2022/03/16 12:59:55;;;;;;;12.93;11.02;;;;;;;19.92;36.32;101163.94;6165505;23;20040;-95
2022/03/16 13:02:44;;;;;;;10.73;9.52;;;;;;;20.14;36.67;101157.81;6219131;23;20020;-95
2022/03/16 13:05:36;;;;;;;13.05;10.43;;;;;;;20.84;34.74;101156.00;6218275;23;20056;-94
2022/03/16 13:08:52;;;;;;;10.05;9.13;;;;;;;21.47;34.21;101141.16;6206617;23;20039;-96
2022/03/16 13:11:46;;;;;;;11.27;10.15;;;;;;;21.77;32.43;101137.78;6167883;23;20075;-95
2022/03/16 13:14:43;;;;;;;11.68;10.00;;;;;;;21.97;31.93;101155.88;6202859;23;20029;-96
2022/03/16 13:17:36;;;;;;;10.65;9.65;;;;;;;22.06;31.28;101159.69;6192268;23;20024;-95
2022/03/16 13:21:23;;;;;;;13.10;11.25;;;;;;;21.14;33.28;101141.97;6206267;23;20024;-96
2022/03/16 13:25:27;;;;;;;13.43;11.55;;;;;;;19.82;34.64;101155.69;6224896;23;20031;-95
2022/03/16 13:28:46;;;;;;;11.93;10.73;;;;;;;17.99;38.55;101151.47;6213812;23;20140;-94
2022/03/16 13:31:53;;;;;;;12.27;10.98;;;;;;;16.92;41.07;101130.63;6227071;23;20456;-95
2022/03/16 13:34:47;;;;;;;13.55;12.18;;;;;;;16.36;43.26;101137.59;6227494;23;20095;-95
2022/03/16 13:37:34;;;;;;;13.68;11.80;;;;;;;16.42;44.33;101161.25;6208046;23;20030;-94
2022/03/16 13:44:05;;;;;;;15.23;12.55;;;;;;;16.66;43.86;101166.16;6161443;23;20069;-93
2022/03/16 13:51:11;;;;;;;14.30;12.65;;;;;;;17.26;42.43;101171.38;6184777;23;20019;-93
2022/03/16 13:54:03;;;;;;;14.15;12.27;;;;;;;17.33;41.59;101105.75;6191360;23;20021;-93
2022/03/16 13:56:45;;;;;;;12.55;11.35;;;;;;;17.50;42.25;101132.31;6193455;23;20062;-95
2022/03/16 13:59:24;;;;;;;14.55;12.95;;;;;;;17.38;42.22;101147.34;6202696;23;20060;-94
2022/03/16 14:02:45;;;;;;;14.05;12.55;;;;;;;17.06;42.70;101153.88;6188312;23;20033;-94
2022/03/16 14:05:39;;;;;;;16.63;13.52;;;;;;;16.61;43.83;101138.78;6199252;23;20017;-94
2022/03/16 14:08:24;;;;;;;16.58;14.50;;;;;;;15.81;45.76;101121.22;6200211;23;20467;-95
2022/03/16 14:11:00;;;;;;;16.05;13.98;;;;;;;15.56;47.42;101148.44;6189653;23;20081;-94
2022/03/16 14:13:42;;;;;;;17.65;14.40;;;;;;;14.70;48.75;101077.50;6189182;23;20033;-93
2022/03/16 14:17:24;;;;;;;16.38;14.68;;;;;;;14.78;49.75;101149.13;6191180;23;20159;-95
2022/03/16 14:20:34;;;;;;;17.38;13.93;;;;;;;14.57;49.76;101115.56;6106442;23;20044;-94
2022/03/16 14:23:21;;;;;;;15.90;13.93;;;;;;;14.68;50.01;101140.72;6191503;23;20048;-95
2022/03/16 14:26:27;;;;;;;17.48;14.18;;;;;;;14.44;49.90;101118.00;6172306;23;20021;-93
2022/03/16 14:29:35;;;;;;;16.08;14.20;;;;;;;14.17;51.26;101096.25;6190183;23;20623;-95
2022/03/16 14:32:22;;;;;;;16.30;14.40;;;;;;;14.27;51.48;101116.16;6218383;23;20021;-95
2022/03/16 14:35:34;;;;;;;15.93;14.27;;;;;;;14.07;51.94;101087.00;6208105;23;20038;-95
2022/03/16 14:39:08;;;;;;;19.38;15.32;;;;;;;14.39;51.96;101139.53;6155399;23;20029;-96
2022/03/16 14:43:04;;;;;;;16.70;14.23;;;;;;;14.04;51.98;101068.50;6099621;23;20025;-95
2022/03/16 14:46:34;;;;;;;17.00;14.85;;;;;;;14.11;51.83;101074.41;6147907;23;20040;-95
2022/03/16 14:50:23;;;;;;;17.02;14.07;;;;;;;14.16;51.95;101073.25;6154727;23;20400;-93
2022/03/16 14:53:23;;;;;;;18.35;15.15;;;;;;;14.18;51.20;101082.00;6156059;23;20021;-95
2022/03/16 14:56:56;;;;;;;;;;;;;;;;;;;;;
2022/03/16 14:59:40;;;;;;;19.77;15.75;;;;;;;14.15;51.51;101076.84;6217027;23;20047;-94
2022/03/16 15:02:44;;;;;;;17.40;15.10;;;;;;;14.42;51.76;101111.91;6215375;23;20566;-96
2022/03/16 15:05:26;;;;;;;18.20;15.65;;;;;;;14.05;52.12;101072.91;6214685;23;20056;-94
2022/03/16 15:08:33;;;;;;;18.63;15.82;;;;;;;14.11;51.39;101085.06;6218196;23;20127;-96
2022/03/16 15:11:03;;;;;;;19.95;15.35;;;;;;;13.93;52.52;101062.88;6218352;23;20123;-93
2022/03/16 15:13:45;;;;;;;19.75;16.67;;;;;;;13.81;52.55;101063.50;6216272;23;20021;-94
2022/03/16 15:16:28;;;;;;;17.42;15.57;;;;;;;13.73;52.97;101055.00;6214765;23;20174;-96
2022/03/16 15:19:29;;;;;;;19.30;16.65;;;;;;;13.73;52.94;101052.34;6216719;23;20017;-95
2022/03/16 15:21:57;;;;;;;18.85;15.52;;;;;;;13.93;53.18;101084.19;6218480;23;20088;-95
2022/03/16 15:24:25;;;;;;;19.83;15.25;;;;;;;14.01;53.04;101088.16;6218784;23;20056;-93
2022/03/16 15:26:57;;;;;;;18.33;14.18;;;;;;;13.90;53.13;101063.88;6218625;23;20020;-95
2022/03/16 15:30:02;;;;;;;18.00;15.18;;;;;;;13.89;52.80;101059.50;6221658;23;20051;-93
2022/03/16 15:33:18;;;;;;;20.08;16.02;;;;;;;14.15;53.41;101111.47;6220331;23;20020;-94
2022/03/16 15:36:03;;;;;;;18.33;15.25;;;;;;;13.78;53.26;101053.00;6220262;23;20086;-94
2022/03/16 15:39:39;;;;;;;16.77;14.82;;;;;;;13.89;53.35;101085.25;6212707;23;20025;-94
2022/03/16 15:42:48;;;;;;;19.27;15.68;;;;;;;14.06;53.39;101101.25;6161464;23;20043;-94
2022/03/16 15:45:51;;;;;;;18.17;15.40;;;;;;;13.79;53.34;101076.00;6195536;23;20030;-94
2022/03/16 15:48:35;;;;;;;19.98;15.63;;;;;;;13.76;53.96;101078.81;6219313;23;20021;-92
2022/03/16 15:51:42;;;;;;;22.23;17.48;;;;;;;13.63;53.53;101055.47;6215817;23;20051;-93
2022/03/16 15:54:59;;;;;;;19.20;15.82;;;;;;;13.54;53.97;101069.22;6215494;23;20039;-92
2022/03/16 15:57:57;;;;;;;21.02;16.38;;;;;;;13.73;53.86;101110.91;6213063;23;20059;-92
2022/03/16 16:00:38;;;;;;;;;;;;;;;13.60;54.57;101107.97;6212260;23;20017;-93
2022/03/16 16:03:06;;;;;;;20.27;15.93;;;;;;;13.57;55.05;101108.13;6213919;23;20371;-94
2022/03/16 16:05:36;;;;;;;22.23;16.17;;;;;;;13.46;55.32;101098.00;6213607;23;20056;-94
2022/03/16 16:09:09;;;;;;;20.90;16.77;;;;;;;13.33;55.64;101083.56;6212897;23;20044;-94
2022/03/16 16:12:06;;;;;;;21.42;17.25;;;;;;;13.33;54.97;101084.44;6211412;23;20032;-93
2022/03/16 16:14:50;;;;;;;22.15;17.75;;;;;;;13.13;55.91;101051.69;6189771;23;20021;-93
2022/03/16 16:17:21;;;;;;;21.20;17.05;;;;;;;13.03;56.32;101056.59;6212317;23;20047;-93
2022/03/16 16:19:48;;;;;;;23.85;19.05;;;;;;;13.12;56.81;101068.56;6222338;23;20080;-93
2022/03/16 16:22:16;;;;;;;22.80;17.95;;;;;;;12.99;56.28;101052.34;6216779;23;20071;-93
2022/03/16 16:25:00;;;;;;;21.63;17.15;;;;;;;12.74;57.17;101012.75;6208018;23;20301;-93
2022/03/16 16:27:41;;;;;;;;;;;;;;;13.05;57.52;101085.75;6207574;23;20044;-92
2022/03/16 16:30:25;;;;;;;25.52;18.70;;;;;;;12.82;58.17;101058.44;6213136;23;19919;-92
2022/03/16 16:33:06;;;;;;;21.55;18.25;;;;;;;12.70;58.60;101045.72;6211741;23;20136;-93
2022/03/16 16:35:47;;;;;;;;;;;;;;;12.88;58.60;101092.72;6212992;23;20036;-92
2022/03/16 16:38:26;;;;;;;24.40;19.83;;;;;;;12.82;58.52;101078.81;6215458;23;19916;-93
2022/03/16 16:41:06;;;;;;;27.58;20.15;;;;;;;12.64;58.35;101053.94;6216335;23;20060;-93
2022/03/16 16:43:47;;;;;;;26.08;19.58;;;;;;;12.54;57.95;101026.94;6212330;23;20021;-93
2022/03/16 16:46:28;;;;;;;;;;;;;;;12.79;58.66;101097.56;6212835;23;20020;-94
2022/03/16 16:49:36;;;;;;;25.48;19.70;;;;;;;12.55;58.97;101071.16;6216178;23;19958;-94
2022/03/16 16:52:42;;;;;;;25.88;19.27;;;;;;;12.50;59.08;101069.63;6160559;23;20025;-93
2022/03/16 16:55:26;;;;;;;26.83;21.25;;;;;;;12.39;59.37;101067.47;6196320;23;20465;-93
2022/03/16 16:58:23;;;;;;;27.50;20.60;;;;;;;12.27;59.83;101063.56;6213639;23;20021;-94
2022/03/16 17:01:06;;;;;;;;;;;;;;;12.41;60.07;101086.84;6215927;23;20071;-93
2022/03/16 17:03:49;;;;;;;26.20;20.30;;;;;;;12.13;60.31;101047.31;6214286;23;19923;-94
2022/03/16 17:06:26;;;;;;;24.35;20.00;;;;;;;12.07;60.56;101044.09;6192695;23;20027;-92
2022/03/16 17:09:08;;;;;;;27.08;20.95;;;;;;;11.97;60.78;101051.56;6192776;23;20575;-93
2022/03/16 17:11:49;;;;;;;27.63;21.35;;;;;;;11.91;61.06;101043.88;6214355;23;20020;-95
2022/03/16 17:14:31;;;;;;;;;;;;;;;12.10;61.00;101087.31;6195097;23;20020;-93
2022/03/16 17:17:42;;;;;;;27.60;21.42;;;;;;;11.67;61.72;101024.50;6214533;23;20271;-93
2022/03/16 17:20:33;;;;;;;26.13;20.92;;;;;;;11.97;61.65;101087.84;6181367;23;20095;-93
2022/03/16 17:23:24;;;;;;;28.75;21.27;;;;;;;11.78;62.90;101071.84;6213986;23;20139;-92
2022/03/16 17:26:07;;;;;;;28.40;21.50;;;;;;;11.80;62.87;101068.22;6210610;23;20048;-93
2022/03/16 17:32:21;;;;;;;29.42;22.38;;;;;;;11.67;63.16;101040.41;6135436;23;20689;-92
2022/03/16 17:35:08;;;;;;;31.00;22.63;;;;;;;11.64;63.54;101052.97;6133126;23;20045;-91
2022/03/16 17:48:52;;;;;;;29.67;21.95;;;;;;;11.58;64.20;101060.22;6131232;23;20029;-96
2022/03/16 17:52:37;;;;;;;;;;;;;;;;;;;;;
2022/03/16 17:58:57;;;;;;;31.52;22.08;;;;;;;11.47;64.73;101058.94;6137071;23;20081;-95
2022/03/16 18:13:52;;;;;;;30.95;23.50;;;;;;;11.18;65.27;101052.97;6060783;23;20019;-93
2022/03/16 18:20:50;;;;;;;28.60;22.10;;;;;;;11.01;66.10;101033.38;6014955;23;20056;-94
2022/03/16 18:32:19;;;;;;;;;;;;;;;;;;;;;
2022/03/16 18:35:14;;;;;;;31.52;22.80;;;;;;;11.11;67.09;101077.16;5952349;24;20028;-93
2022/03/16 18:39:13;;;;;;;30.73;22.13;;;;;;;10.98;67.37;101083.84;6013747;23;20035;-93
2022/03/16 18:42:24;;;;;;;31.23;21.73;;;;;;;10.57;67.65;101021.78;6014828;23;20172;-92
2022/03/16 18:50:08;;;;;;;30.77;21.63;;;;;;;10.84;68.16;101085.22;6016033;23;20023;-94
2022/03/16 19:01:19;;;;;;;32.35;22.67;;;;;;;10.77;68.57;101083.72;5938061;24;19919;-94
2022/03/16 19:15:35;;;;;;;;;;;;;;;;;;;;;
2022/03/16 19:19:16;;;;;;;;;;;;;;;;;;;;;
2022/03/16 19:22:08;;;;;;;37.35;25.52;;;;;;;10.40;72.37;101064.75;6086066;23;20470;-95
2022/03/16 19:25:45;;;;;;;36.53;25.00;;;;;;;10.31;72.84;101063.31;6095037;23;20123;-94
2022/03/16 19:29:04;;;;;;;34.17;25.35;;;;;;;10.21;73.58;101056.63;5953719;23;20030;-94
2022/03/16 19:32:09;;;;;;;34.97;25.08;;;;;;;10.00;73.67;101028.22;6096583;23;20025;-94
2022/03/16 19:39:35;;;;;;;37.13;26.02;;;;;;;9.94;74.58;101036.34;6030389;23;20018;-95
2022/03/16 19:42:19;;;;;;;42.72;28.17;;;;;;;9.91;75.44;101037.34;6076594;23;20567;-94
2022/03/16 19:53:24;;;;;;;42.45;28.67;;;;;;;9.62;76.06;101011.84;5986453;24;20395;-96
2022/03/16 20:09:23;;;;;;;40.72;28.10;;;;;;;9.75;78.42;101070.50;5761126;24;20035;-92
2022/03/16 20:31:55;;;;;;;38.67;26.83;;;;;;;9.20;79.85;101022.03;5831333;24;20135;-94
2022/03/16 20:35:00;;;;;;;39.17;26.92;;;;;;;9.38;79.79;101047.91;5838195;24;20018;-93
2022/03/16 20:41:55;;;;;;;43.53;28.00;;;;;;;9.49;79.67;101092.50;5884433;24;20030;-94
2022/03/16 20:46:06;;;;;;;39.25;27.58;;;;;;;9.12;79.85;101029.34;5894436;24;20095;-93
2022/03/16 20:57:28;;;;;;;38.80;26.60;;;;;;;8.99;80.11;101028.84;5821362;24;20018;-95
2022/03/16 21:01:46;;;;;;;43.47;29.35;;;;;;;9.31;80.49;101080.69;5908718;24;20026;-94
2022/03/16 21:05:38;;;;;;;42.05;27.42;;;;;;;9.02;79.81;101027.88;5909986;24;20138;-94
2022/03/16 21:08:45;;;;;;;42.47;29.05;;;;;;;9.28;80.52;101066.75;5938162;24;20028;-94
2022/03/16 21:16:36;;;;;;;39.75;27.48;;;;;;;9.15;80.11;101053.88;5879767;24;20064;-95
2022/03/16 21:24:07;;;;;;;41.53;28.23;;;;;;;9.08;80.35;101065.56;5910009;24;20090;-93
2022/03/16 21:27:08;;;;;;;43.03;28.30;;;;;;;8.84;80.38;101028.44;5918446;24;20088;-92
2022/03/16 21:30:42;;;;;;;39.28;28.48;;;;;;;9.18;80.85;101081.13;6000141;24;20128;-93
2022/03/16 21:34:00;;;;;;;39.50;27.13;;;;;;;8.85;80.78;101035.44;5971563;23;20025;-95
2022/03/16 21:44:57;;;;;;;37.90;25.63;;;;;;;9.25;79.40;101094.13;5920321;24;20032;-93
2022/03/16 21:48:07;;;;;;;34.53;25.73;;;;;;;9.23;79.33;101095.06;5999351;24;20039;-93
2022/03/16 21:54:32;;;;;;;35.72;26.20;;;;;;;9.04;79.38;101069.19;5989467;24;20024;-93
2022/03/16 21:57:51;;;;;;;40.15;26.25;;;;;;;9.04;79.31;101052.50;5991299;24;20045;-95
